Time;durP1;ratioP1;P1;durP2;ratioP2;P2;SDS_P1;SDS_P2;PMS_P1;PMS_P2;Temp;Humidity;BMP_temperature;BMP_pressure;BME280_temperature;BME280_humidity;BME280_pressure;Samples;Min_cycle;Max_cycle;Signal;HPM_P1;HPM_P2
2023/03/26 00:01:36;;;;;;;8.20;6.30;;;;;;;10.69;87.17;99998.74;109476;1231;74056;-70
2023/03/26 00:04:06;;;;;;;8.80;6.30;;;;;;;10.68;90.11;99999.77;109381;1230;61752;-68
2023/03/26 00:06:37;;;;;;;10.00;6.70;;;;;;;10.68;89.14;99993.96;109263;1228;69015;-67
2023/03/26 00:09:09;;;;;;;10.60;6.80;;;;;;;10.67;89.24;99998.47;108954;1233;64190;-66
2023/03/26 00:11:36;;;;;;;8.00;5.80;;;;;;;10.66;88.94;99995.42;109507;1229;59064;-64
2023/03/26 00:14:04;;;;;;;8.90;5.90;;;;;;;10.65;88.64;99997.92;109483;1231;59073;-65
2023/03/26 00:16:33;;;;;;;10.80;7.00;;;;;;;10.59;89.22;99998.55;109295;1227;72713;-66
2023/03/26 00:19:01;;;;;;;13.00;8.00;;;;;;;10.56;89.32;99999.89;109548;1230;73751;-66
2023/03/26 00:21:30;;;;;;;9.40;6.60;;;;;;;10.52;89.00;100008.04;109515;1228;70993;-66
2023/03/26 00:24:07;;;;;;;9.80;6.70;;;;;;;10.45;88.49;100008.08;109121;1232;74055;-71
2023/03/26 00:26:37;;;;;;;9.10;6.50;;;;;;;10.37;88.11;100006.17;109316;1231;57503;-68
2023/03/26 00:29:05;;;;;;;8.70;6.00;;;;;;;10.27;88.08;100002.05;109256;1235;58851;-67
2023/03/26 00:31:36;;;;;;;8.00;5.90;;;;;;;10.17;88.79;99997.89;109279;1235;72642;-68
2023/03/26 00:34:04;;;;;;;8.60;6.50;;;;;;;10.11;89.02;99999.05;109471;1227;72163;-68
2023/03/26 00:36:34;;;;;;;7.80;6.10;;;;;;;10.07;89.60;99998.11;109294;1235;61068;-67
2023/03/26 00:39:04;;;;;;;8.00;6.40;;;;;;;10.02;91.69;100000.78;109279;1229;64097;-67
2023/03/26 00:41:35;;;;;;;7.50;5.90;;;;;;;9.96;92.63;99994.36;109182;1234;63181;-66
2023/03/26 00:44:03;;;;;;;9.00;6.70;;;;;;;9.90;91.80;99992.08;109381;1227;58987;-64
2023/03/26 00:46:31;;;;;;;7.10;6.00;;;;;;;9.81;91.03;99995.05;109090;1227;63796;-67
2023/03/26 00:49:02;;;;;;;8.00;6.30;;;;;;;9.70;92.58;99999.92;109279;1230;61430;-67
2023/03/26 00:51:32;;;;;;;8.10;6.20;;;;;;;9.61;91.98;100005.70;109440;1229;60327;-67
2023/03/26 00:54:00;;;;;;;10.30;6.30;;;;;;;9.50;92.11;100010.67;109334;1227;73796;-66
2023/03/26 00:56:28;;;;;;;7.40;6.40;;;;;;;9.46;93.80;100013.13;109116;1234;63611;-67
2023/03/26 00:58:56;;;;;;;7.60;6.00;;;;;;;9.53;95.54;100017.24;109097;1232;59090;-66
2023/03/26 01:01:26;;;;;;;9.50;6.60;;;;;;;9.57;95.58;100014.71;109221;1228;62902;-67
2023/03/26 01:04:17;;;;;;;8.60;6.70;;;;;;;9.64;95.02;100016.52;109215;1235;62038;-66
2023/03/26 01:06:45;;;;;;;9.20;6.30;;;;;;;9.58;95.03;100021.04;109492;1231;59463;-65
2023/03/26 01:09:19;;;;;;;9.00;6.60;;;;;;;9.50;94.77;100024.10;109135;1231;73407;-66
2023/03/26 01:11:47;;;;;;;;;;;;;;;9.42;95.11;100024.02;109265;1231;63375;-66
2023/03/26 01:14:22;;;;;;;8.50;6.50;;;;;;;9.33;94.52;100028.58;109143;1234;59069;-67
2023/03/26 01:17:01;;;;;;;8.40;6.60;;;;;;;9.21;93.93;100028.74;109141;1227;62961;-65
2023/03/26 01:19:57;;;;;;;10.50;6.80;;;;;;;9.15;95.16;100034.13;109411;1229;73132;-66
2023/03/26 01:22:26;;;;;;;8.80;6.60;;;;;;;9.11;96.79;100030.40;109094;1231;60362;-69
2023/03/26 01:24:55;;;;;;;10.50;7.30;;;;;;;9.14;97.23;100030.01;109150;1230;62260;-69
2023/03/26 01:27:28;;;;;;;9.50;6.90;;;;;;;9.17;97.19;100031.02;109283;1230;62382;-67
2023/03/26 01:30:16;;;;;;;10.10;7.00;;;;;;;9.18;97.22;100035.23;109088;1232;57369;-70
2023/03/26 01:33:14;;;;;;;9.30;7.20;;;;;;;9.19;96.86;100037.94;109367;1235;62417;-68
2023/03/26 01:36:04;;;;;;;8.80;6.50;;;;;;;9.14;96.87;100040.45;109517;1231;61613;-67
2023/03/26 01:38:39;;;;;;;9.00;6.30;;;;;;;9.10;96.78;100045.67;109457;1228;70728;-68
2023/03/26 01:41:11;;;;;;;8.70;6.60;;;;;;;9.12;96.98;100040.09;109562;1231;73661;-67
2023/03/26 01:43:50;;;;;;;10.00;6.90;;;;;;;9.10;96.59;100040.95;109646;1228;63199;-69
2023/03/26 01:46:20;;;;;;;9.70;6.80;;;;;;;9.05;96.15;100042.72;109456;1228;57334;-67
2023/03/26 01:48:47;;;;;;;8.00;6.20;;;;;;;8.99;96.41;100038.62;109128;1231;62854;-67
2023/03/26 01:51:32;;;;;;;8.10;6.30;;;;;;;8.96;96.37;100038.38;109265;1231;60817;-65
2023/03/26 01:54:05;;;;;;;9.50;6.60;;;;;;;8.95;96.10;100037.95;109232;1229;59543;-66
2023/03/26 01:57:02;;;;;;;;;;;;;;;8.90;95.98;100034.79;109195;1230;62379;-67
2023/03/26 02:00:24;;;;;;;8.60;6.00;;;;;;;8.79;95.84;100028.73;109069;1231;63173;-67
2023/03/26 02:03:19;;;;;;;8.10;6.10;;;;;;;8.66;95.99;100028.98;108751;1233;59008;-67
2023/03/26 02:05:49;;;;;;;8.30;6.20;;;;;;;8.51;96.27;100027.13;109046;1228;62466;-65
2023/03/26 02:08:53;;;;;;;8.30;6.40;;;;;;;8.39;95.99;100027.54;108863;1231;61027;-66
2023/03/26 02:11:21;;;;;;;8.00;6.10;;;;;;;8.19;95.01;100024.11;109018;1235;69940;-65
2023/03/26 02:13:51;;;;;;;8.90;6.90;;;;;;;8.11;96.34;100024.88;109141;1231;64572;-67
2023/03/26 02:16:19;;;;;;;9.70;6.60;;;;;;;8.11;96.78;100021.59;108996;1231;62435;-66
2023/03/26 02:18:50;;;;;;;9.70;7.60;;;;;;;8.03;96.04;100023.40;108908;1229;59156;-64
2023/03/26 02:21:21;;;;;;;9.00;6.80;;;;;;;7.90;96.03;100025.23;108658;1228;73834;-64
2023/03/26 02:23:56;;;;;;;10.00;6.80;;;;;;;7.77;97.02;100028.71;109010;1227;62138;-63
2023/03/26 02:26:24;;;;;;;8.00;6.40;;;;;;;7.65;97.21;100036.13;108843;1235;70052;-64
2023/03/26 02:29:19;;;;;;;8.50;6.60;;;;;;;7.55;97.83;100036.02;108941;1235;63092;-66
2023/03/26 02:31:47;;;;;;;9.60;6.90;;;;;;;7.44;97.34;100039.88;108971;1230;61931;-64
2023/03/26 02:34:16;;;;;;;9.80;6.60;;;;;;;7.34;98.01;100038.50;108890;1234;59120;-66
2023/03/26 02:36:53;;;;;;;12.50;7.20;;;;;;;7.38;98.99;100037.20;109026;1234;62473;-66
2023/03/26 02:39:21;;;;;;;9.70;6.90;;;;;;;7.37;98.00;100040.02;108630;1227;61159;-65
2023/03/26 02:41:55;;;;;;;9.90;6.90;;;;;;;7.36;97.76;100034.95;108921;1229;70027;-66
2023/03/26 02:44:23;;;;;;;8.40;6.70;;;;;;;7.40;98.13;100032.18;108790;1231;63505;-64
2023/03/26 02:47:29;;;;;;;9.40;6.80;;;;;;;7.42;97.97;100029.80;109157;1230;62667;-66
2023/03/26 02:50:16;;;;;;;9.30;6.60;;;;;;;7.35;97.15;100029.24;109000;1231;58980;-64
2023/03/26 02:53:08;;;;;;;10.00;7.20;;;;;;;7.26;97.18;100032.83;108955;1231;73709;-64
2023/03/26 02:55:37;;;;;;;10.90;6.80;;;;;;;7.16;96.55;100037.48;109045;1227;61211;-65
2023/03/26 02:58:05;;;;;;;9.20;6.80;;;;;;;7.05;97.39;100036.17;108912;1235;60152;-65
2023/03/26 03:00:36;;;;;;;8.40;6.60;;;;;;;6.94;98.25;100036.08;108921;1235;63227;-67
2023/03/26 03:04:03;;;;;;;10.00;7.10;;;;;;;6.87;99.73;100036.52;109227;1234;62846;-65
2023/03/26 03:06:37;;;;;;;12.50;7.30;;;;;;;7.02;100.00;100042.61;109066;1235;59332;-64
2023/03/26 03:09:10;;;;;;;9.70;6.90;;;;;;;7.02;99.43;100039.86;109021;1230;72668;-66
2023/03/26 03:11:40;;;;;;;9.70;6.90;;;;;;;7.02;98.62;100041.45;109063;1235;62939;-66
2023/03/26 03:14:07;;;;;;;11.40;7.00;;;;;;;7.01;97.53;100038.03;109142;1229;71364;-67
2023/03/26 03:16:35;;;;;;;11.00;7.50;;;;;;;6.98;97.94;100037.71;109254;1231;63154;-66
2023/03/26 03:19:06;;;;;;;11.20;7.70;;;;;;;7.00;98.05;100040.15;109254;1231;62413;-66
2023/03/26 03:21:36;;;;;;;9.60;6.70;;;;;;;6.94;97.60;100038.66;109146;1230;58196;-68
2023/03/26 03:24:05;;;;;;;11.00;7.50;;;;;;;6.86;96.81;100044.08;108883;1231;63189;-66
2023/03/26 03:26:40;;;;;;;9.30;6.90;;;;;;;6.73;95.91;100044.61;109194;1230;72849;-67
2023/03/26 03:30:05;;;;;;;12.80;7.40;;;;;;;6.60;98.31;100048.05;109292;1232;59721;-64
2023/03/26 03:32:51;;;;;;;10.20;7.00;;;;;;;6.53;97.61;100046.98;109501;1229;74379;-65
2023/03/26 03:35:21;;;;;;;11.20;7.80;;;;;;;6.46;97.55;100048.65;109310;1227;61954;-67
2023/03/26 03:37:51;;;;;;;12.00;7.50;;;;;;;6.40;96.59;100048.00;109520;1228;58182;-65
2023/03/26 03:40:19;;;;;;;11.50;7.40;;;;;;;6.32;96.62;100047.13;109485;1227;63342;-67
2023/03/26 03:42:47;;;;;;;11.60;7.80;;;;;;;6.25;96.99;100047.57;109459;1229;61471;-71
2023/03/26 03:45:20;;;;;;;11.50;7.00;;;;;;;6.22;97.54;100052.97;109467;1231;69636;-69
2023/03/26 03:48:07;;;;;;;10.20;7.30;;;;;;;6.18;97.77;100055.67;109308;1228;73822;-68
2023/03/26 03:50:43;;;;;;;9.90;6.70;;;;;;;6.15;97.97;100055.31;109071;1235;58328;-66
2023/03/26 03:53:28;;;;;;;8.60;6.60;;;;;;;6.14;98.80;100055.91;109114;1227;59072;-65
2023/03/26 03:55:58;;;;;;;10.80;6.80;;;;;;;6.16;98.07;100058.39;109281;1232;72896;-67
2023/03/26 03:58:38;;;;;;;10.40;7.20;;;;;;;6.25;99.64;100058.27;109165;1234;72867;-65
2023/03/26 04:01:12;;;;;;;10.60;7.30;;;;;;;6.28;99.93;100061.02;109248;1235;59411;-65
2023/03/26 04:03:57;;;;;;;11.90;7.90;;;;;;;6.31;99.93;100060.54;109140;1231;62545;-66
2023/03/26 04:06:30;;;;;;;11.40;8.40;;;;;;;6.36;100.00;100058.59;109034;1231;62253;-64
2023/03/26 04:08:58;;;;;;;12.30;7.70;;;;;;;6.48;100.00;100061.65;109229;1235;58444;-66
2023/03/26 04:11:26;;;;;;;10.00;7.00;;;;;;;6.60;100.00;100066.91;109081;1235;62374;-68
2023/03/26 04:14:12;;;;;;;11.10;6.90;;;;;;;6.74;100.00;100068.39;109320;1227;70772;-67
2023/03/26 04:16:56;;;;;;;10.30;7.40;;;;;;;6.75;100.00;100064.15;109285;1235;59739;-67
2023/03/26 04:19:26;;;;;;;10.80;6.20;;;;;;;6.78;99.71;100067.24;109185;1231;63095;-68
2023/03/26 04:21:54;;;;;;;11.10;7.70;;;;;;;6.74;98.06;100067.38;109127;1230;62579;-65
2023/03/26 04:24:23;;;;;;;9.80;6.60;;;;;;;6.60;97.19;100069.67;109161;1231;60615;-65
2023/03/26 04:27:30;;;;;;;11.10;6.90;;;;;;;6.44;96.39;100075.53;109179;1227;62918;-66
2023/03/26 04:30:19;;;;;;;10.50;6.20;;;;;;;6.25;96.37;100079.89;109260;1231;61125;-64
2023/03/26 04:32:51;;;;;;;8.30;6.30;;;;;;;6.08;96.69;100085.48;109282;1230;59411;-65
2023/03/26 04:35:19;;;;;;;8.80;6.70;;;;;;;5.93;97.57;100091.77;109192;1231;73350;-65
2023/03/26 04:37:51;;;;;;;7.10;4.50;;;;;;;5.81;98.77;100096.30;109218;1234;58924;-67
2023/03/26 04:40:24;;;;;;;12.40;7.10;;;;;;;5.66;99.90;100101.72;109144;1227;61584;-67
2023/03/26 04:43:16;;;;;;;12.20;7.60;;;;;;;5.52;100.00;100114.52;109188;1231;63050;-67
2023/03/26 04:45:51;;;;;;;13.80;8.10;;;;;;;5.46;100.00;100125.42;109368;1227;61228;-67
2023/03/26 04:48:19;;;;;;;15.90;7.80;;;;;;;5.47;100.00;100128.13;109381;1227;70349;-66
2023/03/26 04:50:48;;;;;;;13.80;8.40;;;;;;;5.51;100.00;100129.44;109521;1230;63879;-67
2023/03/26 04:53:23;;;;;;;7.50;4.70;;;;;;;5.51;100.00;100133.22;109002;1229;61517;-66
2023/03/26 04:56:27;;;;;;;12.40;8.60;;;;;;;5.44;100.00;100138.50;109240;1229;61060;-66
2023/03/26 04:59:24;;;;;;;14.30;8.30;;;;;;;5.40;100.00;100140.12;109101;1235;73000;-65
2023/03/26 05:01:53;;;;;;;14.10;9.10;;;;;;;5.48;100.00;100141.39;109102;1232;72521;-68
2023/03/26 05:04:21;;;;;;;11.60;8.30;;;;;;;5.65;100.00;100142.23;109363;1231;59766;-68
2023/03/26 05:06:59;;;;;;;11.30;8.10;;;;;;;5.95;100.00;100146.31;109206;1229;64576;-67
2023/03/26 05:09:34;;;;;;;;;;;;;;;6.34;100.00;100148.51;109061;1230;62451;-69
2023/03/26 05:12:11;;;;;;;11.70;7.20;;;;;;;6.58;100.00;100150.95;109220;1231;61094;-67
2023/03/26 05:14:48;;;;;;;12.00;7.50;;;;;;;6.74;99.60;100148.15;109061;1231;73579;-67
2023/03/26 05:17:23;;;;;;;10.90;7.20;;;;;;;6.87;99.40;100146.66;109195;1231;61536;-67
2023/03/26 05:19:51;;;;;;;10.30;6.30;;;;;;;7.03;98.57;100146.44;109157;1233;69675;-67
2023/03/26 05:22:19;;;;;;;8.50;6.20;;;;;;;7.15;97.92;100149.27;109046;1231;64916;-67
2023/03/26 05:25:07;;;;;;;10.80;6.70;;;;;;;7.28;97.11;100147.17;109030;1231;59088;-69
2023/03/26 05:27:34;;;;;;;12.50;6.30;;;;;;;7.43;96.17;100147.17;108996;1234;58265;-69
2023/03/26 05:30:05;;;;;;;8.60;5.70;;;;;;;7.61;95.50;100147.36;109022;1235;62374;-67
2023/03/26 05:32:34;;;;;;;5.20;4.00;;;;;;;7.82;94.53;100146.92;109123;1231;62533;-67
2023/03/26 05:35:04;;;;;;;8.00;4.10;;;;;;;8.20;92.64;100154.17;109089;1232;70119;-67
2023/03/26 05:37:32;;;;;;;6.60;3.50;;;;;;;8.55;91.09;100143.63;109162;1227;74040;-67
2023/03/26 05:40:11;;;;;;;5.10;3.30;;;;;;;8.85;89.75;100160.77;109257;1229;62403;-68
2023/03/26 05:42:46;;;;;;;7.00;3.70;;;;;;;9.09;88.65;100162.59;109289;1228;61788;-66
2023/03/26 05:45:27;;;;;;;4.60;2.70;;;;;;;9.27;87.43;100166.29;109311;1235;64835;-65
2023/03/26 05:47:55;;;;;;;5.40;3.10;;;;;;;9.44;86.10;100173.83;109422;1227;62147;-67
2023/03/26 05:50:24;;;;;;;6.80;3.00;;;;;;;9.47;85.67;100177.98;109441;1235;70083;-67
2023/03/26 05:52:55;;;;;;;5.10;2.80;;;;;;;9.56;85.43;100179.41;109473;1230;74246;-66
2023/03/26 05:56:10;;;;;;;4.00;1.90;;;;;;;9.49;84.49;100188.77;109191;1234;62801;-68
2023/03/26 05:58:56;;;;;;;5.50;2.30;;;;;;;9.32;84.95;100191.11;109208;1228;59088;-66
2023/03/26 06:01:43;;;;;;;4.50;2.60;;;;;;;9.17;85.71;100191.20;109185;1235;62384;-67
2023/03/26 06:04:24;;;;;;;3.70;2.10;;;;;;;9.09;86.35;100190.77;109271;1234;63613;-68
2023/03/26 06:07:15;;;;;;;5.80;1.80;;;;;;;9.01;87.00;100196.93;109342;1228;71665;-68
2023/03/26 06:09:46;;;;;;;5.90;3.00;;;;;;;8.99;87.36;100193.44;109288;1234;63069;-70
2023/03/26 06:12:14;;;;;;;4.70;2.30;;;;;;;8.96;87.96;100194.65;109085;1231;61772;-68
2023/03/26 06:14:42;;;;;;;5.60;2.30;;;;;;;8.90;88.30;100190.94;108940;1230;59190;-69
2023/03/26 06:17:19;;;;;;;6.10;2.70;;;;;;;8.80;89.28;100193.76;108853;1235;63162;-69
2023/03/26 06:20:10;;;;;;;3.90;2.00;;;;;;;8.77;89.96;100196.90;108996;1235;71640;-69
2023/03/26 06:22:41;;;;;;;3.50;1.90;;;;;;;8.74;90.19;100193.31;108912;1235;60714;-69
2023/03/26 06:25:24;;;;;;;4.30;2.00;;;;;;;8.73;90.49;100193.04;109098;1230;63893;-68
2023/03/26 06:28:22;;;;;;;3.20;2.00;;;;;;;8.71;91.52;100190.03;109105;1227;62119;-73
2023/03/26 06:31:02;;;;;;;3.30;1.80;;;;;;;8.71;91.72;100190.19;109255;1235;59496;-73
2023/03/26 06:33:43;;;;;;;3.10;1.70;;;;;;;8.71;91.25;100190.88;109309;1232;73065;-71
2023/03/26 06:36:12;;;;;;;2.00;1.40;;;;;;;8.72;92.14;100195.86;108991;1232;71788;-70
2023/03/26 06:38:40;;;;;;;3.60;1.70;;;;;;;8.65;93.35;100195.19;109130;1235;69296;-69
2023/03/26 06:41:09;;;;;;;2.90;2.00;;;;;;;8.77;92.86;100192.95;108986;1231;74850;-67
2023/03/26 06:43:55;;;;;;;4.10;1.80;;;;;;;8.77;93.32;100197.94;109152;1229;62886;-65
2023/03/26 06:46:41;;;;;;;3.50;2.00;;;;;;;8.74;93.59;100217.44;109039;1231;62860;-68
2023/03/26 06:49:28;;;;;;;3.50;2.10;;;;;;;8.79;93.75;100231.69;109116;1229;74456;-67
2023/03/26 06:52:14;;;;;;;3.20;1.70;;;;;;;8.81;94.43;100229.79;109185;1228;62911;-68
2023/03/26 06:55:09;;;;;;;4.70;2.70;;;;;;;8.82;95.41;100225.89;109164;1235;70051;-73
2023/03/26 06:57:56;;;;;;;4.70;3.30;;;;;;;8.85;95.98;100223.92;109236;1234;74163;-69
2023/03/26 07:01:06;;;;;;;7.30;4.00;;;;;;;8.83;96.41;100224.27;108915;1230;63895;-68
2023/03/26 07:03:52;;;;;;;5.90;3.80;;;;;;;8.85;96.52;100229.35;109306;1230;58926;-77
2023/03/26 07:06:38;;;;;;;6.30;3.30;;;;;;;8.90;96.12;100222.39;109117;1231;63167;-71
2023/03/26 07:09:29;;;;;;;6.90;3.70;;;;;;;9.01;96.45;100219.80;109111;1232;72233;-70
2023/03/26 07:12:37;;;;;;;5.30;2.60;;;;;;;9.07;96.27;100224.92;108791;1235;59874;-71
2023/03/26 07:15:47;;;;;;;5.50;2.90;;;;;;;9.14;95.38;100217.62;108948;1234;62626;-72
2023/03/26 07:19:11;;;;;;;5.20;3.30;;;;;;;9.23;95.53;100207.39;108497;1235;59165;-66
2023/03/26 07:21:41;;;;;;;4.40;2.70;;;;;;;9.33;95.39;100205.59;108974;1235;58277;-70
2023/03/26 07:24:26;;;;;;;6.20;3.90;;;;;;;9.44;94.45;100200.27;109192;1234;63048;-72
2023/03/26 07:27:32;;;;;;;3.40;2.50;;;;;;;9.50;93.42;100196.50;109397;1231;71818;-76
2023/03/26 07:30:40;;;;;;;3.70;2.50;;;;;;;9.56;92.91;100204.78;109352;1231;60751;-67
2023/03/26 07:34:10;;;;;;;3.20;2.10;;;;;;;9.74;92.01;100211.39;109204;1231;74148;-69
2023/03/26 07:37:04;;;;;;;3.60;2.20;;;;;;;9.68;91.26;100205.74;108741;1232;61993;-74
2023/03/26 07:40:26;;;;;;;3.40;2.20;;;;;;;9.79;91.50;100204.70;108848;1235;58300;-75
2023/03/26 07:43:55;;;;;;;3.10;2.10;;;;;;;9.99;89.44;100204.56;108924;1227;73212;-72
2023/03/26 07:46:48;;;;;;;3.20;2.20;;;;;;;10.04;89.53;100206.11;108878;1235;62509;-71
2023/03/26 07:49:31;;;;;;;6.00;2.50;;;;;;;10.15;88.82;100209.09;108909;1232;71545;-70
2023/03/26 07:52:28;;;;;;;3.30;2.30;;;;;;;10.25;88.38;100206.23;109004;1235;63834;-72
2023/03/26 07:55:07;;;;;;;3.70;1.90;;;;;;;10.32;87.91;100204.47;109194;1232;58944;-73
2023/03/26 07:58:28;;;;;;;3.00;2.00;;;;;;;10.50;87.00;100209.64;108973;1230;58944;-71
2023/03/26 08:01:30;;;;;;;3.10;2.20;;;;;;;10.65;85.86;100208.96;109109;1235;73129;-72
2023/03/26 08:04:23;;;;;;;4.40;2.80;;;;;;;10.72;85.75;100207.73;108865;1231;71727;-69
2023/03/26 08:07:52;;;;;;;4.10;2.40;;;;;;;10.80;84.96;100209.95;108836;1228;71910;-71
2023/03/26 08:11:03;;;;;;;3.50;2.10;;;;;;;10.92;84.25;100210.75;108860;1235;73977;-71
2023/03/26 08:13:59;;;;;;;2.90;2.00;;;;;;;11.02;83.97;100207.48;108869;1229;59018;-72
2023/03/26 08:16:52;;;;;;;3.80;2.00;;;;;;;11.20;81.99;100210.17;109560;1235;60693;-71
2023/03/26 08:19:47;;;;;;;3.30;2.00;;;;;;;11.25;80.46;100214.64;109397;1230;63405;-69
2023/03/26 08:22:26;;;;;;;4.10;2.10;;;;;;;11.21;80.49;100210.61;109332;1231;60861;-71
2023/03/26 08:25:26;;;;;;;3.00;2.10;;;;;;;11.36;80.31;100210.44;109093;1234;69586;-70
2023/03/26 08:28:12;;;;;;;3.70;1.80;;;;;;;11.47;77.96;100200.43;109268;1231;74047;-69
2023/03/26 08:30:41;;;;;;;2.50;1.70;;;;;;;11.62;77.10;100204.41;109240;1227;59054;-67
2023/03/26 08:33:17;;;;;;;4.00;2.30;;;;;;;11.67;76.57;100203.32;109352;1229;59059;-70
2023/03/26 08:35:46;;;;;;;5.10;1.90;;;;;;;11.87;76.92;100200.20;109162;1227;74131;-69
2023/03/26 08:38:17;;;;;;;3.00;2.20;;;;;;;12.09;75.14;100191.88;109085;1228;71768;-71
2023/03/26 08:41:23;;;;;;;2.40;1.60;;;;;;;12.13;74.11;100194.07;109326;1235;59608;-72
2023/03/26 08:44:31;;;;;;;2.90;1.50;;;;;;;12.14;72.79;100193.16;109242;1235;72810;-68
2023/03/26 08:47:32;;;;;;;2.60;1.70;;;;;;;12.24;72.53;100192.66;109279;1231;61049;-72
2023/03/26 08:50:37;;;;;;;3.30;1.80;;;;;;;12.30;72.23;100184.67;109181;1231;57552;-69
2023/03/26 08:53:38;;;;;;;3.10;1.70;;;;;;;12.45;71.15;100174.34;109569;1230;62117;-73
2023/03/26 08:56:38;;;;;;;7.20;2.00;;;;;;;12.50;71.03;100168.69;109282;1231;60970;-72
2023/03/26 08:59:21;;;;;;;5.50;1.80;;;;;;;12.63;70.29;100164.52;109444;1231;59146;-72
2023/03/26 09:02:21;;;;;;;3.60;2.20;;;;;;;12.75;68.68;100160.36;109343;1232;73462;-75
2023/03/26 09:05:33;;;;;;;3.40;1.80;;;;;;;12.64;68.06;100158.23;109435;1230;61004;-71
2023/03/26 09:08:03;;;;;;;3.10;1.60;;;;;;;12.74;67.91;100144.36;109247;1235;62134;-75
2023/03/26 09:11:15;;;;;;;4.20;1.90;;;;;;;12.67;67.21;100143.17;109537;1229;74036;-72
2023/03/26 09:14:23;;;;;;;5.20;1.90;;;;;;;12.92;66.84;100146.20;109409;1233;61587;-75
2023/03/26 09:17:24;;;;;;;5.40;1.70;;;;;;;12.99;65.90;100152.73;109077;1232;60751;-74
2023/03/26 09:20:33;;;;;;;2.40;1.30;;;;;;;12.91;64.82;100152.73;109137;1235;73315;-72
2023/03/26 09:23:43;;;;;;;4.90;1.70;;;;;;;12.89;64.80;100154.66;109097;1230;59115;-71
2023/03/26 09:26:41;;;;;;;2.80;1.50;;;;;;;12.83;64.12;100156.68;108750;1236;343186;-71
2023/03/26 09:29:40;;;;;;;4.40;1.90;;;;;;;12.86;63.13;100157.77;109209;1232;62844;-72
2023/03/26 09:32:41;;;;;;;2.90;1.60;;;;;;;12.94;61.85;100156.38;109212;1235;73114;-70
2023/03/26 09:36:10;;;;;;;2.30;1.60;;;;;;;13.12;61.15;100157.88;109188;1230;61236;-70
2023/03/26 09:38:53;;;;;;;3.60;1.60;;;;;;;13.28;60.87;100152.05;109254;1231;73432;-72
2023/03/26 09:41:42;;;;;;;3.20;2.00;;;;;;;13.44;60.94;100154.41;109309;1232;59826;-75
2023/03/26 09:44:31;;;;;;;2.40;1.70;;;;;;;13.53;60.47;100151.67;109342;1230;58972;-75
2023/03/26 09:47:35;;;;;;;3.40;1.80;;;;;;;13.56;60.51;100147.88;109280;1235;62826;-76
2023/03/26 09:50:17;;;;;;;2.50;1.60;;;;;;;13.65;60.11;100144.09;109228;1230;72703;-72
2023/03/26 09:53:12;;;;;;;2.70;1.60;;;;;;;13.49;59.77;100142.05;109219;1232;71354;-73
2023/03/26 09:55:59;;;;;;;2.90;1.60;;;;;;;13.59;59.08;100146.02;109333;1229;72514;-74
2023/03/26 09:58:45;;;;;;;2.60;1.80;;;;;;;13.66;57.89;100147.20;109088;1235;59109;-72
2023/03/26 10:01:50;;;;;;;2.40;1.80;;;;;;;13.62;58.79;100143.27;109074;1231;59078;-72
2023/03/26 10:04:44;;;;;;;2.40;1.80;;;;;;;13.54;59.34;100142.95;109033;1235;63028;-74
2023/03/26 10:07:20;;;;;;;2.60;1.50;;;;;;;13.78;58.29;100149.81;109271;1229;60847;-73
2023/03/26 10:10:00;;;;;;;2.90;1.90;;;;;;;13.86;57.59;100149.19;109321;1232;68258;-72
2023/03/26 10:12:54;;;;;;;2.60;1.60;;;;;;;14.01;56.98;100156.33;109038;1235;74384;-71
2023/03/26 10:15:53;;;;;;;3.20;1.50;;;;;;;14.09;56.86;100150.87;108993;1233;59003;-73
2023/03/26 10:18:32;;;;;;;2.60;1.70;;;;;;;14.07;56.92;100150.55;108890;1235;58719;-72
2023/03/26 10:21:53;;;;;;;2.80;1.90;;;;;;;14.10;57.59;100143.23;109123;1229;71935;-72
2023/03/26 10:24:54;;;;;;;6.00;2.40;;;;;;;14.15;57.92;100143.52;109175;1230;61088;-71
2023/03/26 10:28:05;;;;;;;3.20;1.90;;;;;;;14.27;58.28;100140.56;109147;1230;59129;-71
2023/03/26 10:31:06;;;;;;;4.40;2.50;;;;;;;14.57;57.59;100133.09;109196;1235;62615;-70
2023/03/26 10:33:51;;;;;;;3.70;1.90;;;;;;;14.55;56.53;100133.51;109229;1230;58955;-75
2023/03/26 10:36:36;;;;;;;4.30;2.00;;;;;;;14.57;55.36;100141.48;109338;1233;58974;-75
2023/03/26 10:39:59;;;;;;;3.70;2.30;;;;;;;14.50;56.66;100138.34;109438;1229;73541;-70
2023/03/26 10:42:57;;;;;;;3.10;1.90;;;;;;;14.71;56.73;100122.44;109084;1229;72599;-70
2023/03/26 10:45:49;;;;;;;5.10;2.10;;;;;;;14.62;56.57;100113.02;109036;1235;60277;-69
2023/03/26 10:48:59;;;;;;;3.10;2.30;;;;;;;14.76;56.16;100102.64;109231;1228;74021;-71
2023/03/26 10:51:58;;;;;;;3.10;2.10;;;;;;;14.73;55.96;100098.89;108719;1235;60402;-72
2023/03/26 10:54:35;;;;;;;4.30;2.20;;;;;;;14.78;55.36;100096.84;109160;1232;59914;-71
2023/03/26 10:57:33;;;;;;;3.30;2.40;;;;;;;14.66;55.42;100091.05;109020;1229;62086;-72
2023/03/26 11:00:14;;;;;;;4.50;1.90;;;;;;;14.64;54.52;100091.41;108824;1236;72203;-73
2023/03/26 11:03:13;;;;;;;3.10;2.00;;;;;;;14.69;53.51;100088.09;109194;1227;70806;-73
2023/03/26 11:06:02;;;;;;;2.40;1.40;;;;;;;14.70;52.90;100084.38;109012;1229;74395;-71
2023/03/26 11:09:01;;;;;;;2.10;1.40;;;;;;;14.85;53.05;100085.48;109098;1235;59055;-71
2023/03/26 11:11:56;;;;;;;1.90;1.50;;;;;;;15.09;52.61;100079.30;109185;1235;60773;-74
2023/03/26 11:14:41;;;;;;;4.00;1.80;;;;;;;15.01;51.96;100070.30;109216;1230;73420;-73
2023/03/26 11:17:37;;;;;;;2.20;1.40;;;;;;;15.15;52.09;100060.36;108865;1227;71223;-72
2023/03/26 11:20:17;;;;;;;2.20;1.50;;;;;;;15.35;49.61;100056.33;108954;1228;69784;-71
2023/03/26 11:23:22;;;;;;;3.10;1.50;;;;;;;15.60;48.82;100054.14;109098;1229;74197;-74
2023/03/26 11:26:08;;;;;;;3.30;2.00;;;;;;;16.24;47.94;100051.80;108896;1229;61571;-71
2023/03/26 11:29:02;;;;;;;3.50;2.20;;;;;;;16.82;46.26;100049.03;109088;1230;57393;-70
2023/03/26 11:32:04;;;;;;;3.10;1.60;;;;;;;17.21;43.55;100051.24;109069;1228;73432;-71
2023/03/26 11:35:13;;;;;;;2.30;1.60;;;;;;;17.65;42.28;100049.40;109303;1230;71780;-74
2023/03/26 11:37:46;;;;;;;2.80;1.60;;;;;;;17.93;42.17;100042.20;109084;1229;71276;-72
2023/03/26 11:40:40;;;;;;;2.90;1.60;;;;;;;18.31;41.40;100041.52;108843;1228;65610;-74
2023/03/26 11:43:15;;;;;;;2.90;1.90;;;;;;;18.91;38.57;100042.34;109013;1231;60986;-71
2023/03/26 11:45:47;;;;;;;2.10;1.20;;;;;;;18.74;39.38;100042.52;109327;1232;57633;-74
2023/03/26 11:48:39;;;;;;;2.60;1.40;;;;;;;18.54;39.21;100033.78;109191;1229;62910;-71
2023/03/26 11:51:11;;;;;;;2.50;1.40;;;;;;;18.57;38.64;100032.31;109267;1231;61983;-73
2023/03/26 11:53:45;;;;;;;2.80;1.30;;;;;;;18.23;38.15;100027.79;109183;1229;70372;-72
2023/03/26 11:56:28;;;;;;;1.50;1.20;;;;;;;18.10;38.44;100023.17;108968;1235;64676;-75
2023/03/26 11:59:21;;;;;;;2.50;1.80;;;;;;;18.24;38.49;100029.60;109032;1235;58709;-73
2023/03/26 12:01:56;;;;;;;2.10;1.40;;;;;;;18.44;37.89;100034.92;108728;1233;59100;-71
2023/03/26 12:04:35;;;;;;;5.50;1.30;;;;;;;17.96;37.54;100030.49;109086;1235;63744;-70
2023/03/26 12:07:22;;;;;;;3.00;1.50;;;;;;;18.16;38.07;100028.75;109122;1229;72196;-73
2023/03/26 12:09:55;;;;;;;5.00;1.50;;;;;;;18.44;37.57;100020.95;109139;1235;70524;-72
2023/03/26 12:12:39;;;;;;;1.90;1.20;;;;;;;18.21;37.75;100022.92;109143;1235;74392;-73
2023/03/26 12:15:17;;;;;;;2.30;1.20;;;;;;;17.98;37.76;100025.55;109163;1229;60534;-72
2023/03/26 12:17:54;;;;;;;1.80;1.20;;;;;;;17.46;38.42;100023.19;109297;1227;60534;-74
2023/03/26 12:20:25;;;;;;;2.80;1.70;;;;;;;17.26;38.52;100027.48;109271;1230;72366;-73
2023/03/26 12:22:57;;;;;;;2.20;1.40;;;;;;;16.77;38.95;100021.11;109287;1229;61730;-74
2023/03/26 12:25:35;;;;;;;3.00;1.70;;;;;;;16.60;39.46;100014.86;109220;1229;70300;-75
2023/03/26 12:28:16;;;;;;;5.10;1.80;;;;;;;16.38;40.07;100019.02;109169;1228;73361;-74
2023/03/26 12:31:03;;;;;;;2.70;1.50;;;;;;;16.29;40.28;100023.11;109318;1229;57487;-74
2023/03/26 12:33:34;;;;;;;2.10;1.20;;;;;;;16.07;40.42;100027.04;109135;1228;58758;-71
2023/03/26 12:36:29;;;;;;;2.60;1.50;;;;;;;15.96;40.55;100026.36;109114;1231;62875;-72
2023/03/26 12:38:56;;;;;;;2.80;1.80;;;;;;;16.02;40.68;100027.04;109152;1235;61625;-73